Meteo Giornale » Osservazioni meteo Italia » Cervia

ore: 08:55 - Osservazioni Meteo Cervia
Lat. 44° 13' N Lon. 12° 18' E Alt. 6 metri s.l.m.

sereno Europe/Rome

21 °C

Sereno

Temp. 24 Ore

17 °C

28 °C

Ovest/Nord-Ovest

9.3 Km/h

Dew point 16 °C

Umidità 73 %

Visibilità  10 Km

Il sole sorge alle ore 06:15

Il sole tramonta alle ore 20:14

Data e Ora Cielo e Fenomeni T °C DP °C Um. % Pres. hPa Vis. km Vento km/h
Oggi h: 08:55 sereno Sereno 21 16 73 1014 10 O/NO 9.3
Oggi h: 07:55 sereno Sereno 18 14 77 1014 10 N 5.5
Oggi h: 06:55 sereno Sereno 17 14 82 1014 10 N 5.5
Oggi h: 05:55 sereno Sereno 17 13 77 1014 10 N 3.7
Oggi h: 03:55 sereno Sereno 17 12 72 1014 10 N 5.5
Oggi h: 01:55 sereno Sereno 18 12 67 1014 10 N 5.5
Oggi h: 00:55 sereno Sereno 18 11 63 1014 10 O 7.4
Ieri h: 23:55 sereno Sereno 19 12 63 1014 10 N 5.5
Ieri h: 22:55 sereno Sereno 20 11 56 1014 10 N 3.7
Ieri h: 21:55 sereno Sereno 21 12 56 1014 10 N 1.8
Ieri h: 20:55 sereno Sereno 23 13 53 1014 10 N 0
Ieri h: 19:55 sereno Sereno 26 14 47 1014 10 N 1.8
Ieri h: 18:55 sereno Sereno 27 15 47 1014 10 N 3.7
Ieri h: 17:55 sereno Sereno 27 15 47 1014 10 N 3.7
Ieri h: 16:55 sereno Sereno 28 14 42 1015 10 E/NE 7.4
Ieri h: 15:55 sereno Sereno 28 14 42 1015 10 E/NE 7.4
Ieri h: 14:55 poco_nuvoloso Poco Nuvoloso 28 15 45 1015 10 E 11.1
Ieri h: 13:55 poco_nuvoloso Poco Nuvoloso 28 15 45 1015 10 E/NE 11.1
Ieri h: 12:55 poco_nuvoloso Poco Nuvoloso 28 16 48 1016 10 E/NE 13
Ieri h: 11:55 poco_nuvoloso Poco Nuvoloso 27 19 61 1016 10 E 13
Ieri h: 10:55 sereno Sereno 25 19 69 1016 10 N 5.5
Ieri h: 09:55 sereno Sereno 23 18 73 1016 10 O/NO 13